Huvudsida
METAR-TAF:

METAR-TAF

Flygplatser :

Hamads internationella flygplats

Doha, Qatar

latitud: 25-16-23N, longitud: 51-36-29E, höjd: 4 m

Aktuellt väderrapport

Denna rapport gjordes för 49 minuter sedan, klockan 23:00 UTC
Vind 1 kt från väst/sydväst
Temperatur 23°C
Fuktighet 44%
Tryck 1013 hPa
Sikt 10 km eller mer
Inga moln under 1 500 m eller inga cumulonimbus

METAR: OTHH 152300Z 24001KT CAVOK 23/10 Q1013 NOSIG

Tid: 02:49 (23:49 UTC)

Väderprognos

Denna rapport gjordes för 36 minuter sedan, klockan 23:13 UTC
Prognos gäller från 16 kl. 00 UTC till 17 kl. 06 UTC
Vind 5 kt från väst
Sikt 10 km eller mer
Brutna moln på en höjd av 10000 ft
Blir
från 16 kl. 10 UTC till 16 kl. 12 UTC
Vind 10 kt från ost/nordost
Blir
från 17 kl. 03 UTC till 17 kl. 05 UTC
Vind 13 kt från sydost

TAF: OTHH 152313Z 1600/1706 26005KT 9999 BKN100 BECMG 1610/1612 07010KT BECMG 1703/1705 13013KT

Aktuella väderrapporter och prognoser från 4000 flygplatser (METAR- och TAF-rapporter).

De tillgängliga stationerna syns som gula och röda prickar på kartan.

För musen över prickarna för att se namnen på stationerna.

Klicka sedan för att få väderrapporter och prognoser.

För att ändra kartan: Klicka på de gröna knapparna med ett svart kors på för att zooma in; den gröna knappen med ett streck på för att zooma ut; eller på de gröna pilarna för angränsande kartor.


METAR-TAF: